createdAt,value
2023-02-19T00:04:35.626Z,100277.53
2023-02-19T00:09:37.193Z,100250.53
2023-02-19T00:14:39.192Z,100251.06
2023-02-19T00:19:40.849Z,100267.53
2023-02-19T00:24:42.419Z,100238.03
2023-02-19T00:29:44.226Z,100246.69
2023-02-19T00:34:45.847Z,100222.69
2023-02-19T00:39:56.451Z,100240.25
2023-02-19T00:44:58.200Z,100213.50
2023-02-19T00:49:59.818Z,100217.91
2023-02-19T00:55:01.927Z,100256.75
2023-02-19T01:00:04.436Z,100233.78
2023-02-19T01:05:06.434Z,100274.31
2023-02-19T01:10:11.164Z,100218.16
2023-02-19T01:15:12.900Z,100255.91
2023-02-19T01:20:14.655Z,100249.72
2023-02-19T01:25:16.463Z,100224.34
2023-02-19T01:30:18.262Z,100249.50
2023-02-19T01:35:19.988Z,100275.53
2023-02-19T01:40:21.888Z,100269.41
2023-02-19T01:45:30.848Z,100266.06
2023-02-19T01:50:37.955Z,100253.06
2023-02-19T01:55:41.010Z,100252.13
2023-02-19T02:00:48.057Z,100249.53
2023-02-19T02:05:59.425Z,100227.81
2023-02-19T02:11:01.172Z,100232.28
2023-02-19T02:16:32.723Z,100232.81
2023-02-19T02:21:55.528Z,100241.53
2023-02-19T02:27:31.058Z,100234.59
2023-02-19T02:32:42.821Z,100238.47
2023-02-19T02:37:47.081Z,100221.84
2023-02-19T02:42:48.831Z,100238.41
2023-02-19T02:47:56.755Z,100226.00
2023-02-19T02:53:23.613Z,100244.88
2023-02-19T02:58:27.920Z,100213.66
2023-02-19T03:03:31.780Z,100208.13
2023-02-19T03:08:45.675Z,100232.47
2023-02-19T03:14:05.927Z,100190.94
2023-02-19T03:19:21.822Z,100200.63
2023-02-19T03:24:48.424Z,100210.63
2023-02-19T03:29:54.616Z,100226.00
2023-02-19T03:35:06.510Z,100236.06
2023-02-19T03:40:08.900Z,100205.25
2023-02-19T03:45:43.049Z,100214.19
2023-02-19T03:50:50.021Z,100241.06
2023-02-19T03:56:34.034Z,100244.34
2023-02-19T04:02:11.649Z,100216.72
2023-02-19T04:07:13.779Z,100242.38
2023-02-19T04:12:16.745Z,100268.28
2023-02-19T04:17:48.462Z,100279.84
2023-02-19T04:22:57.815Z,100249.41
2023-02-19T04:27:59.502Z,100253.34
2023-02-19T04:33:05.001Z,100328.38
2023-02-19T04:38:06.758Z,100296.31
2023-02-19T04:43:08.443Z,100283.97
2023-02-19T04:48:10.415Z,100323.00
2023-02-19T04:53:12.100Z,100299.16
2023-02-19T04:58:13.851Z,100329.94
2023-02-19T05:03:18.650Z,100325.72
2023-02-19T05:08:20.532Z,100339.28
2023-02-19T05:13:22.339Z,100352.94
2023-02-19T05:18:24.150Z,100343.31
2023-02-19T05:23:27.155Z,100343.00
2023-02-19T05:28:29.105Z,100334.44
2023-02-19T05:33:31.147Z,100315.38
2023-02-19T05:38:32.846Z,100327.09
2023-02-19T05:43:34.674Z,100346.78
2023-02-19T05:48:36.732Z,100341.75
2023-02-19T05:53:39.501Z,100345.16
2023-02-19T05:58:41.127Z,100350.47
2023-02-19T06:03:43.053Z,100329.63
2023-02-19T06:08:44.907Z,100371.81
2023-02-19T06:13:47.301Z,100354.25
2023-02-19T06:18:49.085Z,100358.97
2023-02-19T06:23:50.949Z,100359.03
2023-02-19T06:28:53.548Z,100362.97
2023-02-19T06:33:55.484Z,100345.94
2023-02-19T06:39:00.817Z,100343.44
2023-02-19T06:44:02.642Z,100366.88
2023-02-19T06:49:05.623Z,100375.44
2023-02-19T06:54:07.529Z,100414.13
2023-02-19T06:59:19.231Z,100367.50
2023-02-19T07:04:23.780Z,100409.31
2023-02-19T07:09:25.542Z,100423.41
2023-02-19T07:14:29.466Z,100425.97
2023-02-19T07:19:31.257Z,100456.03
2023-02-19T07:24:33.009Z,100452.91
2023-02-19T07:29:34.782Z,100463.34
2023-02-19T07:34:36.651Z,100456.16
2023-02-19T07:39:38.592Z,100461.13
2023-02-19T07:44:40.287Z,100429.75
2023-02-19T07:49:41.895Z,100468.19
2023-02-19T07:54:43.629Z,100471.63
2023-02-19T07:59:45.451Z,100482.16
2023-02-19T08:04:47.705Z,100500.81
2023-02-19T08:10:09.317Z,100500.16
2023-02-19T08:15:11.051Z,100463.47
2023-02-19T08:20:12.857Z,100489.94
2023-02-19T08:25:14.548Z,100484.09
2023-02-19T08:30:16.326Z,100500.50
2023-02-19T08:35:18.040Z,100493.09
2023-02-19T08:40:19.830Z,100517.19
2023-02-19T08:45:24.307Z,100509.88
2023-02-19T08:50:26.847Z,100506.66
2023-02-19T08:55:28.816Z,100483.03
2023-02-19T09:00:30.750Z,100484.75
2023-02-19T09:05:32.572Z,100497.66
2023-02-19T09:10:37.132Z,100488.94
2023-02-19T09:15:39.080Z,100521.88
2023-02-19T09:20:40.820Z,100509.50
2023-02-19T09:25:42.775Z,100526.75
2023-02-19T09:30:44.515Z,100530.09
2023-02-19T09:35:46.246Z,100534.63
2023-02-19T09:40:48.026Z,100548.84
2023-02-19T09:46:03.119Z,100593.03
2023-02-19T09:51:06.965Z,100536.66
2023-02-19T09:56:09.359Z,100559.47
2023-02-19T10:01:12.501Z,100549.28
2023-02-19T10:06:20.497Z,100567.00
2023-02-19T10:11:25.854Z,100553.44
2023-02-19T10:16:29.120Z,100538.63
2023-02-19T10:21:33.578Z,100555.84
2023-02-19T10:26:36.523Z,100547.00
2023-02-19T10:31:38.391Z,100586.31
2023-02-19T10:36:42.568Z,100584.84
2023-02-19T10:41:46.967Z,100590.22
2023-02-19T10:46:52.065Z,100575.09
2023-02-19T10:51:56.770Z,100570.06
2023-02-19T10:57:17.524Z,100585.72
2023-02-19T11:06:30.286Z,100639.28
2023-02-19T11:11:38.711Z,100624.03
2023-02-19T11:17:03.960Z,100597.41
2023-02-19T11:22:33.307Z,100572.56
2023-02-19T11:27:34.949Z,100562.97
2023-02-19T11:32:36.809Z,100556.59
2023-02-19T11:37:57.838Z,100547.16
2023-02-19T11:43:26.919Z,100577.00
2023-02-19T11:48:54.897Z,100586.25
2023-02-19T11:54:05.278Z,100571.56
2023-02-19T11:59:45.194Z,100642.66
2023-02-19T12:05:16.911Z,100563.72
2023-02-19T12:10:43.135Z,100565.16
2023-02-19T12:16:13.446Z,100611.72
2023-02-19T12:21:51.558Z,100618.13
2023-02-19T12:27:08.558Z,100547.69
2023-02-19T12:32:28.115Z,100568.13
2023-02-19T12:37:32.750Z,100568.19
2023-02-19T12:42:34.468Z,100600.53
2023-02-19T12:47:40.912Z,100599.06
2023-02-19T12:52:47.760Z,100567.00
2023-02-19T12:57:51.271Z,100562.66
2023-02-19T13:03:20.898Z,100566.75
2023-02-19T13:08:29.277Z,100546.09
2023-02-19T13:13:44.664Z,100548.97
2023-02-19T13:18:57.121Z,100579.25
2023-02-19T13:24:03.179Z,100586.06
2023-02-19T13:29:22.744Z,100567.41
2023-02-19T13:34:47.901Z,100568.59
2023-02-19T13:39:55.616Z,100560.50
2023-02-19T13:44:58.851Z,100582.84
2023-02-19T13:50:07.293Z,100556.16
2023-02-19T13:55:50.946Z,100575.88
2023-02-19T14:00:53.929Z,100582.34
2023-02-19T14:06:06.399Z,100552.69
2023-02-19T14:11:08.864Z,100585.72
2023-02-19T14:16:35.203Z,100580.25
2023-02-19T14:21:39.749Z,100584.34
2023-02-19T14:26:42.340Z,100561.78
2023-02-19T14:31:46.830Z,100574.25
2023-02-19T14:36:54.831Z,100555.22
2023-02-19T14:42:02.909Z,100585.47
2023-02-19T14:47:09.562Z,100560.19
2023-02-19T14:52:20.799Z,100582.34
2023-02-19T14:57:27.624Z,100585.00
2023-02-19T15:02:31.225Z,100577.75
2023-02-19T15:07:34.200Z,100588.00
2023-02-19T15:12:40.919Z,100582.84
2023-02-19T15:17:42.866Z,100621.66
2023-02-19T15:22:46.286Z,100614.38
2023-02-19T15:27:48.305Z,100615.63
2023-02-19T15:32:58.755Z,100619.16
2023-02-19T15:38:01.215Z,100577.78
2023-02-19T15:43:03.094Z,100593.66
2023-02-19T15:48:11.798Z,100622.47
2023-02-19T15:53:18.893Z,100600.19
2023-02-19T15:58:33.379Z,100610.72
2023-02-19T16:03:35.794Z,100593.03
2023-02-19T16:08:39.853Z,100642.53
2023-02-19T16:13:41.526Z,100605.28
2023-02-19T16:18:48.834Z,100647.78
2023-02-19T16:23:59.482Z,100630.47
2023-02-19T16:29:01.236Z,100616.09
2023-02-19T16:34:17.846Z,100643.06
2023-02-19T16:39:20.957Z,100611.75
2023-02-19T16:44:25.834Z,100644.22
2023-02-19T16:49:27.521Z,100574.78
2023-02-19T16:54:29.313Z,100613.25
2023-02-19T16:59:31.057Z,100622.72
2023-02-19T17:04:32.777Z,100624.63
2023-02-19T17:09:34.589Z,100642.50
2023-02-19T17:14:36.182Z,100641.44
2023-02-19T17:19:39.322Z,100633.03
2023-02-19T17:24:40.939Z,100689.03
2023-02-19T17:29:42.878Z,100681.78
2023-02-19T17:34:44.726Z,100695.97
2023-02-19T17:39:46.378Z,100647.31
2023-02-19T17:44:48.089Z,100682.94
2023-02-19T17:49:49.698Z,100689.84
2023-02-19T17:54:51.416Z,100665.69
2023-02-19T17:59:53.101Z,100680.41
2023-02-19T18:04:54.809Z,100662.66
2023-02-19T18:09:56.536Z,100715.13
2023-02-19T18:14:58.402Z,100736.00
2023-02-19T18:20:00.508Z,100721.88
2023-02-19T18:25:02.262Z,100705.50
2023-02-19T18:30:04.560Z,100746.28
2023-02-19T18:35:06.630Z,100727.72
2023-02-19T18:40:09.351Z,100691.31
2023-02-19T18:45:11.176Z,100740.59
2023-02-19T18:50:13.810Z,100736.41
2023-02-19T18:55:15.505Z,100779.06
2023-02-19T19:00:26.556Z,100732.81
2023-02-19T19:05:28.735Z,100753.53
2023-02-19T19:10:30.986Z,100731.88
2023-02-19T19:15:32.825Z,100767.19
2023-02-19T19:20:34.671Z,100773.66
2023-02-19T19:25:37.399Z,100755.81
2023-02-19T19:30:39.231Z,100752.63
2023-02-19T19:35:41.037Z,100785.69
2023-02-19T19:40:42.640Z,100782.97
2023-02-19T19:45:44.391Z,100784.72
2023-02-19T19:50:46.118Z,100805.06
2023-02-19T19:55:47.834Z,100764.34
2023-02-19T20:00:49.565Z,100777.72
2023-02-19T20:05:51.345Z,100759.66
2023-02-19T20:10:53.010Z,100729.13
2023-02-19T20:15:54.880Z,100763.81
2023-02-19T20:20:56.540Z,100775.31
2023-02-19T20:25:58.215Z,100768.25
2023-02-19T20:30:59.953Z,100766.69
2023-02-19T20:36:01.581Z,100750.81
2023-02-19T20:41:04.187Z,100727.69
2023-02-19T20:46:07.129Z,100746.13
2023-02-19T20:51:09.100Z,100730.88
2023-02-19T20:56:11.931Z,100765.78
2023-02-19T21:01:13.858Z,100786.78
2023-02-19T21:06:15.590Z,100786.53
2023-02-19T21:11:17.436Z,100762.97
2023-02-19T21:16:20.071Z,100764.88
2023-02-19T21:21:25.364Z,100791.41
2023-02-19T21:26:38.382Z,100751.06
2023-02-19T21:31:45.951Z,100760.50
2023-02-19T21:36:49.127Z,100722.78
2023-02-19T21:41:51.777Z,100719.81
2023-02-19T21:46:53.544Z,100755.97
2023-02-19T21:51:55.245Z,100742.34
2023-02-19T21:56:56.953Z,100766.63
2023-02-19T22:01:58.663Z,100754.47
2023-02-19T22:07:00.394Z,100749.47
2023-02-19T22:12:02.074Z,100770.97
2023-02-19T22:17:03.746Z,100770.78
2023-02-19T22:22:05.736Z,100765.72
2023-02-19T22:27:07.503Z,100791.06
2023-02-19T22:32:09.416Z,100766.91
2023-02-19T22:37:11.310Z,100763.56
2023-02-19T22:42:12.991Z,100769.41
2023-02-19T22:47:14.601Z,100806.47
2023-02-19T22:52:16.347Z,100782.34
2023-02-19T22:57:17.994Z,100790.72
2023-02-19T23:02:19.731Z,100778.53
2023-02-19T23:07:21.471Z,100779.31
2023-02-19T23:12:23.306Z,100756.31
2023-02-19T23:17:24.944Z,100805.31
2023-02-19T23:22:26.639Z,100810.41
2023-02-19T23:27:28.661Z,100806.19
2023-02-19T23:32:30.404Z,100808.25
2023-02-19T23:37:32.266Z,100773.00
2023-02-19T23:42:34.027Z,100768.03
2023-02-19T23:47:35.718Z,100810.66
2023-02-19T23:52:37.427Z,100812.34
2023-02-19T23:57:39.308Z,100808.28
